Flight Track Log - Related Links

Times and Time Zones

All times are in EDT time to prevent confusion due to time zone crossing. See the SKW4677 flight status page for this flight to view local times or setup timezone preferences in your user account.

Time Position Orientation Groundspeed Altitude Reporting Facility
EDT Latitude Longitude Course Direction KTS MPH feet Rate Location/Type
Thu 01:14:27 PM 40.7969 -111.9628 360° North 157 181 4,800  Level Salt Lake Center
Thu 01:14:51 PM 40.8133 -111.9628 360° North 142 163 5,400 1,482 Climbing Salt Lake Center
Thu 01:15:52 PM 40.8614 -111.9694 354° North 174 200 6,900 1,415 Climbing Salt Lake Center
Thu 01:16:54 PM 40.9147 -111.9839 348° North 193 222 8,300 1,561 Climbing Salt Lake Center
Thu 01:17:55 PM 40.9708 -111.9969 350° North 204 235 10,100 1,610 Climbing Salt Lake Center
Thu 01:18:57 PM 40.9878 -111.9406 68° East 175 201 11,600 1,597 Climbing Salt Lake Center
Thu 01:19:59 PM 40.9956 -111.8761 81° East 180 207 13,400 1,610 Climbing Salt Lake Center
Thu 01:21:00 PM 40.9906 -111.7942 95° East 194 223 14,900 1,366 Climbing Salt Lake Center
Thu 01:22:02 PM 40.9867 -111.7233 94° East 197 227 16,200 1,161 Climbing Salt Lake Center
Thu 01:23:04 PM 40.9831 -111.6475 94° East 207 238 17,300 878 Climbing Salt Lake Center
Thu 01:24:05 PM 40.9800 -111.5694 93° East 213 245 18,000 341 Climbing Salt Lake Center
Thu 01:25:07 PM 40.9761 -111.4817 93° East 241 277 18,000  Level Salt Lake Center
Thu 01:26:08 PM 41.0011 -111.3950 69° East 255 293 18,000  Level Salt Lake Center
Thu 01:27:10 PM 41.0328 -111.2894 68° East 260 299 18,000 97 Level Salt Lake Center
Thu 01:28:12 PM 41.0558 -111.1986 71° East 260 299 18,200 532 Climbing Salt Lake Center
Thu 01:29:14 PM 41.0783 -111.1142 71° East 247 284 19,100 927 Climbing Salt Lake Center
Thu 01:30:15 PM 41.0981 -111.0333 72° East 235 270 20,100 878 Climbing Salt Lake Center
Thu 01:31:17 PM 41.1183 -110.9536 71° East 229 264 20,900 823 Climbing Salt Lake Center
Thu 01:32:19 PM 41.1403 -110.8647 72° East 230 265 21,800 732 Climbing Salt Lake Center
Thu 01:33:20 PM 41.1600 -110.7883 71° East 230 265 22,400 634 Climbing Salt Lake Center
Thu 01:34:22 PM 41.1833 -110.6958 71° East 236 272 23,100 677 Climbing Salt Lake Center
Thu 01:35:24 PM 41.2028 -110.6164 72° East 237 273 23,800 629 Climbing Salt Lake Center
Thu 01:36:26 PM 41.2269 -110.5242 71° East 236 272 24,400 537 Climbing Salt Lake Center
Thu 01:37:27 PM 41.2461 -110.4453 72° East 235 270 24,900 293 Climbing Salt Lake Center
Thu 01:38:29 PM 41.2664 -110.3636 72° East 241 277 25,000 48 Climbing Salt Lake Center
Thu 01:39:31 PM 41.2906 -110.2633 72° East 255 293 25,000  Level Salt Lake Center
Thu 01:40:33 PM 41.3131 -110.1764 71° East 260 299 25,000  Level Salt Lake Center
Thu 01:41:35 PM 41.3372 -110.0750 72° East 259 298 25,000  Level Salt Lake Center
Thu 01:42:36 PM 41.3581 -109.9881 72° East 257 296 25,000  Level Salt Lake Center
Thu 01:43:38 PM 41.3831 -109.8858 72° East 259 298 25,000  Level Salt Lake Center
Thu 01:44:40 PM 41.4050 -109.7983 71° East 261 300 25,000  Level Salt Lake Center
Thu 01:45:42 PM 41.4294 -109.6956 72° East 262 302 25,000  Level Salt Lake Center
Thu 01:46:44 PM 41.4506 -109.6072 72° East 261 300 25,000  Level Salt Lake Center
Thu 01:47:46 PM 41.4756 -109.5056 72° East 259 298 25,000  Level Salt Lake Center
Thu 01:48:48 PM 41.4975 -109.4142 72° East 264 304 25,000  Level Salt Lake Center
Thu 01:49:50 PM 41.5183 -109.3261 72° East 264 304 25,000  Level Salt Lake Center
Thu 01:50:52 PM 41.5442 -109.2211 72° East 264 304 25,000  Level Salt Lake Center
Thu 01:51:54 PM 41.5644 -109.1292 74° East 265 305 25,000  Level Salt Lake Center
Thu 01:52:56 PM 41.5908 -109.0236 71° East 265 305 25,000  Level Salt Lake Center
Thu 01:53:58 PM 41.6456 -108.9644 39° Northeast 265 305 25,000  Level Salt Lake Center
Thu 01:55:00 PM 41.6997 -108.9053 39° Northeast 263 303 25,000  Level Salt Lake Center
Thu 01:56:02 PM 41.7656 -108.8381 37° Northeast 266 306 25,000  Level Salt Lake Center
Thu 01:57:04 PM 41.8222 -108.7794 38° Northeast 267 307 25,000  Level Salt Lake Center
Thu 01:58:06 PM 41.8883 -108.7119 37° Northeast 267 307 25,000  Level Salt Lake Center
Thu 01:59:08 PM 41.9456 -108.6542 37° Northeast 270 311 25,000  Level Salt Lake Center
Thu 02:00:10 PM 42.0117 -108.5869 37° Northeast 268 308 25,000  Level Salt Lake Center
Thu 02:01:12 PM 42.0667 -108.5292 38° Northeast 264 304 25,000  Level Salt Lake Center
Thu 02:02:13 PM 42.1317 -108.4633 37° Northeast 262 302 25,000  Level Salt Lake Center
Thu 02:03:15 PM 42.1844 -108.4025 40° Northeast 262 302 25,000  Level Salt Lake Center
Thu 02:04:17 PM 42.2489 -108.3347 38° Northeast 263 303 25,000  Level Salt Lake Center
Thu 02:05:19 PM 42.3044 -108.2772 37° Northeast 263 303 25,000  Level Salt Lake Center
Thu 02:06:21 PM 42.3678 -108.2086 39° Northeast 262 302 25,000  Level Salt Lake Center
Thu 02:07:23 PM 42.4242 -108.1553 35° Northeast 262 302 25,000  Level Salt Lake Center
Thu 02:08:25 PM 42.4783 -108.0939 40° Northeast 266 306 25,000  Level Salt Lake Center
Thu 02:09:27 PM 42.5447 -108.0267 37° Northeast 268 308 25,000  Level Salt Lake Center
Thu 02:10:29 PM 42.6000 -107.9669 38° Northeast 267 307 25,000  Level Salt Lake Center
Thu 02:11:30 PM 42.6653 -107.8983 38° Northeast 269 310 25,000  Level Salt Lake Center
Thu 02:12:32 PM 42.7217 -107.8383 38° Northeast 269 310 25,000  Level Salt Lake Center
Thu 02:13:34 PM 42.7861 -107.7686 38° Northeast 269 310 25,000  Level Salt Lake Center
Thu 02:14:36 PM 42.8428 -107.7081 38° Northeast 271 312 25,000  Level Salt Lake Center
Thu 02:15:38 PM 42.9078 -107.6397 38° Northeast 268 308 25,000  Level Salt Lake Center
Thu 02:16:17 PM 42.9442 -107.5978 40° Northeast 266 306 25,000  Level Denver Center
Thu 02:17:19 PM 43.0036 -107.5339 38° Northeast 267 307 25,000  Level Denver Center
Thu 02:18:21 PM 43.0592 -107.4750 38° Northeast 265 305 25,000  Level Denver Center
Thu 02:19:23 PM 43.1242 -107.4044 38° Northeast 267 307 25,000  Level Denver Center
Thu 02:19:45 PM 43.1417 -107.3856 38° Northeast 266 306 25,000  Level Salt Lake Center
Thu 02:20:24 PM 43.1797 -107.3436 39° Northeast 269 310 25,000  Level Denver Center
Thu 02:21:26 PM 43.2436 -107.2742 38° Northeast 264 304 25,000  Level Denver Center
Thu 02:22:28 PM 43.2989 -107.2136 39° Northeast 266 306 25,000  Level Denver Center
Thu 02:23:43 PM 43.3722 -107.1339 38° Northeast 264 304 25,000  Level Denver Center
Thu 02:24:44 PM 43.4267 -107.0731 39° Northeast 265 305 25,000 -585 Level Denver Center
Thu 02:25:46 PM 43.4939 -106.9992 39° Northeast 277 319 23,800 -1,113 Descending Denver Center
Thu 02:26:48 PM 43.5561 -106.9300 39° Northeast 295 339 22,700 -1,065 Descending Denver Center
Thu 02:27:50 PM 43.6219 -106.8411 44° Northeast 298 343 21,600 -1,210 Descending Denver Center
Thu 02:28:52 PM 43.6703 -106.7533 53° Northeast 300 345 20,200 -1,388 Descending Denver Center
Thu 02:30:04 PM 43.7364 -106.6392 51° Northeast 300 345 18,500 -1,161 Descending Salt Lake Center
Thu 02:30:56 PM 43.7767 -106.5664 53° Northeast 299 344 17,800 -1,000 Descending Denver Center
Thu 02:31:58 PM 43.8247 -106.4842 51° Northeast 295 339 16,600 -1,306 Descending Denver Center
Thu 02:33:00 PM 43.8786 -106.3858 53° Northeast 291 335 15,100 -1,113 Descending Denver Center
Thu 02:34:02 PM 43.9183 -106.3183 51° Northeast 288 331 14,300 -1,113 Descending Denver Center
Thu 02:35:04 PM 43.9794 -106.2097 52° Northeast 284 327 12,800 -1,210 Descending Denver Center
Thu 02:36:06 PM 44.0239 -106.1281 53° Northeast 281 323 11,800 -871 Descending Denver Center
Thu 02:37:08 PM 44.0756 -106.0356 52° Northeast 277 319 11,000 -387 Descending Denver Center
Thu 02:38:10 PM 44.1181 -105.9592 52° Northeast 272 313 11,000  Level Denver Center
Thu 02:39:12 PM 44.1614 -105.8808 52° Northeast 256 295 11,000  Level Denver Center
Thu 02:40:14 PM 44.1989 -105.8158 51° Northeast 244 281 11,000 -339 Level Denver Center
Thu 02:41:16 PM 44.2406 -105.7397 53° Northeast 232 267 10,300 -878 Descending Denver Center
Thu 02:42:17 PM 44.2642 -105.6642 66° East 235 270 9,200 -1,082 Descending Denver Center
Thu 02:44:00 PM 44.3321 -105.5359 55° Northeast  Level FlightAware Approximate
Thu 02:51:00 PM 44.3333 -105.5333 North  Level FlightAware Approximate

Login

Don't have an account? Register now (free) for customized features, flight alerts, and more!